createdAt,value
2023-03-21T00:00:21.208Z,20.51
2023-03-21T00:03:24.179Z,20.54
2023-03-21T00:06:27.101Z,20.46
2023-03-21T00:09:29.861Z,20.47
2023-03-21T00:12:37.825Z,20.48
2023-03-21T00:16:01.920Z,20.51
2023-03-21T00:19:07.630Z,20.45
2023-03-21T00:22:10.424Z,20.38
2023-03-21T00:25:13.271Z,20.36
2023-03-21T00:28:17.494Z,20.30
2023-03-21T00:31:20.250Z,20.24
2023-03-21T00:34:31.910Z,20.18
2023-03-21T00:37:45.785Z,20.12
2023-03-21T00:40:49.404Z,20.02
2023-03-21T00:43:55.776Z,20.01
2023-03-21T00:47:07.549Z,19.93
2023-03-21T00:50:11.971Z,19.92
2023-03-21T00:53:15.433Z,19.86
2023-03-21T00:56:18.231Z,19.81
2023-03-21T00:59:22.431Z,19.78
2023-03-21T01:02:26.879Z,19.71
2023-03-21T01:05:45.439Z,19.71
2023-03-21T01:08:53.395Z,19.67
2023-03-21T01:11:56.347Z,19.66
2023-03-21T01:15:00.685Z,19.66
2023-03-21T01:18:03.427Z,19.63
2023-03-21T01:21:07.959Z,19.67
2023-03-21T01:24:11.268Z,19.61
2023-03-21T01:27:14.037Z,19.59
2023-03-21T01:30:22.716Z,19.58
2023-03-21T01:33:26.580Z,19.54
2023-03-21T01:36:29.682Z,19.54
2023-03-21T01:39:35.006Z,19.52
2023-03-21T01:42:37.815Z,19.48
2023-03-21T01:45:59.158Z,19.48
2023-03-21T01:49:04.889Z,19.46
2023-03-21T01:52:15.277Z,19.44
2023-03-21T01:55:21.874Z,19.44
2023-03-21T01:58:25.366Z,19.37
2023-03-21T02:01:28.372Z,19.35
2023-03-21T02:04:32.625Z,19.34
2023-03-21T02:07:37.505Z,19.32
2023-03-21T02:10:40.961Z,19.27
2023-03-21T02:13:43.722Z,19.26
2023-03-21T02:16:53.134Z,19.26
2023-03-21T02:20:22.270Z,19.23
2023-03-21T02:23:48.057Z,19.21
2023-03-21T02:27:05.167Z,19.23
2023-03-21T02:30:29.404Z,19.21
2023-03-21T02:33:42.557Z,19.22
2023-03-21T02:36:51.964Z,19.23
2023-03-21T02:39:57.189Z,19.23
2023-03-21T02:43:04.280Z,19.20
2023-03-21T02:46:11.386Z,19.19
2023-03-21T02:49:18.729Z,19.15
2023-03-21T02:52:37.304Z,19.15
2023-03-21T02:55:43.112Z,19.13
2023-03-21T02:58:46.573Z,19.15
2023-03-21T03:01:51.380Z,19.11
2023-03-21T03:04:54.393Z,19.11
2023-03-21T03:08:03.873Z,19.07
2023-03-21T03:11:15.589Z,19.08
2023-03-21T03:14:49.936Z,19.05
2023-03-21T03:17:55.617Z,19.03
2023-03-21T03:21:02.096Z,19.03
2023-03-21T03:24:09.649Z,19.04
2023-03-21T03:27:15.762Z,19.01
2023-03-21T03:30:18.867Z,19.00
2023-03-21T03:33:23.820Z,18.99
2023-03-21T03:36:33.132Z,18.98
2023-03-21T03:39:41.522Z,18.96
2023-03-21T03:42:47.485Z,18.96
2023-03-21T03:45:51.265Z,18.93
2023-03-21T03:48:56.153Z,18.94
2023-03-21T03:52:00.921Z,18.93
2023-03-21T03:55:06.135Z,18.96
2023-03-21T03:58:19.852Z,19.00
2023-03-21T04:01:24.921Z,18.90
2023-03-21T04:04:29.358Z,18.96
2023-03-21T04:07:32.228Z,19.02
2023-03-21T04:10:36.742Z,19.06
2023-03-21T04:13:39.632Z,19.15
2023-03-21T04:16:42.519Z,19.27
2023-03-21T04:19:45.583Z,19.34
2023-03-21T04:22:48.745Z,19.47
2023-03-21T04:25:56.773Z,19.50
2023-03-21T04:29:01.219Z,19.54
2023-03-21T04:32:04.017Z,19.59
2023-03-21T04:35:08.447Z,19.66
2023-03-21T04:38:11.281Z,19.68
2023-03-21T04:41:15.468Z,19.73
2023-03-21T04:44:18.786Z,19.79
2023-03-21T04:47:22.042Z,19.80
2023-03-21T04:50:24.918Z,19.82
2023-03-21T04:53:27.677Z,19.90
2023-03-21T04:56:32.533Z,19.91
2023-03-21T04:59:35.654Z,19.97
2023-03-21T05:02:38.556Z,20.01
2023-03-21T05:05:41.549Z,19.95
2023-03-21T05:08:44.442Z,19.90
2023-03-21T05:11:49.069Z,19.87
2023-03-21T05:14:51.895Z,19.82
2023-03-21T05:17:55.205Z,19.82
2023-03-21T05:20:58.961Z,19.74
2023-03-21T05:24:03.714Z,19.65
2023-03-21T05:27:08.476Z,19.71
2023-03-21T05:30:21.622Z,19.69
2023-03-21T05:33:24.377Z,19.66
2023-03-21T05:36:27.137Z,19.66
2023-03-21T05:39:29.958Z,19.61
2023-03-21T05:42:34.148Z,19.59
2023-03-21T05:45:37.293Z,19.56
2023-03-21T05:48:40.702Z,19.54
2023-03-21T05:51:45.041Z,19.53
2023-03-21T05:54:48.840Z,19.49
2023-03-21T05:57:52.952Z,19.47
2023-03-21T06:00:55.945Z,19.47
2023-03-21T06:03:58.789Z,19.43
2023-03-21T06:07:01.653Z,19.41
2023-03-21T06:10:04.467Z,19.38
2023-03-21T06:13:08.631Z,19.38
2023-03-21T06:16:11.426Z,19.35
2023-03-21T06:19:14.342Z,19.32
2023-03-21T06:22:17.300Z,19.33
2023-03-21T06:25:21.494Z,19.30
2023-03-21T06:28:25.856Z,19.28
2023-03-21T06:31:34.274Z,19.26
2023-03-21T06:34:39.294Z,19.25
2023-03-21T06:37:43.071Z,19.25
2023-03-21T06:40:46.755Z,19.23
2023-03-21T06:43:51.094Z,19.22
2023-03-21T06:46:54.247Z,19.21
2023-03-21T06:49:57.073Z,19.18
2023-03-21T06:52:59.946Z,19.20
2023-03-21T06:56:02.892Z,19.16
2023-03-21T06:59:08.525Z,19.16
2023-03-21T07:02:12.212Z,19.11
2023-03-21T07:05:15.474Z,19.10
2023-03-21T07:08:18.739Z,19.09
2023-03-21T07:11:22.101Z,19.09
2023-03-21T07:14:26.480Z,19.07
2023-03-21T07:17:29.296Z,19.10
2023-03-21T07:20:32.172Z,19.09
2023-03-21T07:23:35.057Z,19.09
2023-03-21T07:26:37.812Z,19.09
2023-03-21T07:29:42.184Z,19.08
2023-03-21T07:32:45.732Z,19.09
2023-03-21T07:35:48.532Z,19.10
2023-03-21T07:38:51.517Z,19.10
2023-03-21T07:41:55.693Z,19.08
2023-03-21T07:45:00.040Z,19.09
2023-03-21T07:48:03.180Z,19.04
2023-03-21T07:51:06.670Z,19.05
2023-03-21T07:54:09.488Z,19.04
2023-03-21T07:57:13.670Z,19.02
2023-03-21T08:00:23.171Z,19.02
2023-03-21T08:03:29.537Z,19.05
2023-03-21T08:06:32.691Z,19.04
2023-03-21T08:09:36.334Z,19.03
2023-03-21T08:12:39.209Z,19.03
2023-03-21T08:15:43.425Z,19.03
2023-03-21T08:18:47.177Z,19.04
2023-03-21T08:21:51.160Z,19.01
2023-03-21T08:24:53.938Z,18.99
2023-03-21T08:27:56.697Z,18.95
2023-03-21T08:31:00.904Z,18.96
2023-03-21T08:34:03.876Z,18.98
2023-03-21T08:37:07.164Z,18.99
2023-03-21T08:40:13.409Z,19.01
2023-03-21T08:43:16.195Z,18.99
2023-03-21T08:46:20.408Z,18.98
2023-03-21T08:49:23.165Z,18.97
2023-03-21T08:52:25.969Z,19.01
2023-03-21T08:55:28.741Z,19.00
2023-03-21T08:58:32.588Z,19.00
2023-03-21T09:01:37.150Z,18.99
2023-03-21T09:04:40.642Z,18.96
2023-03-21T09:07:44.056Z,18.98
2023-03-21T09:10:46.856Z,18.98
2023-03-21T09:13:49.643Z,18.97
2023-03-21T09:16:53.805Z,18.97
2023-03-21T09:19:57.375Z,18.96
2023-03-21T09:23:01.961Z,18.96
2023-03-21T09:26:05.952Z,18.96
2023-03-21T09:29:08.987Z,18.96
2023-03-21T09:32:13.520Z,18.95
2023-03-21T09:35:18.008Z,18.94
2023-03-21T09:38:37.086Z,18.95
2023-03-21T09:41:54.254Z,18.94
2023-03-21T09:45:02.468Z,19.02
2023-03-21T09:48:10.765Z,19.06
2023-03-21T09:51:18.106Z,19.14
2023-03-21T09:54:25.078Z,19.27
2023-03-21T09:57:33.193Z,19.37
2023-03-21T10:00:38.272Z,19.47
2023-03-21T10:03:44.036Z,19.56
2023-03-21T10:06:50.885Z,19.65
2023-03-21T10:09:54.755Z,19.72
2023-03-21T10:12:58.228Z,19.78
2023-03-21T10:16:01.842Z,19.88
2023-03-21T10:19:11.306Z,19.93
2023-03-21T10:22:14.141Z,19.95
2023-03-21T10:25:18.145Z,20.01
2023-03-21T10:28:22.476Z,20.04
2023-03-21T10:31:26.513Z,20.09
2023-03-21T10:34:33.733Z,20.11
2023-03-21T10:37:36.583Z,20.08
2023-03-21T10:40:39.372Z,20.17
2023-03-21T10:43:43.032Z,19.06
2023-03-21T10:46:52.481Z,18.95
2023-03-21T10:50:07.341Z,20.01
2023-03-21T10:53:16.745Z,20.10
2023-03-21T10:56:19.996Z,20.13
2023-03-21T10:59:23.393Z,20.20
2023-03-21T11:02:27.302Z,20.22
2023-03-21T11:05:37.323Z,20.18
2023-03-21T11:08:41.330Z,20.14
2023-03-21T11:11:52.391Z,20.17
2023-03-21T11:14:55.193Z,20.13
2023-03-21T11:17:58.451Z,20.13
2023-03-21T11:21:05.924Z,20.10
2023-03-21T11:24:14.935Z,20.06
2023-03-21T11:27:17.786Z,20.05
2023-03-21T11:30:22.251Z,20.10
2023-03-21T11:33:28.283Z,20.02
2023-03-21T11:36:38.937Z,20.18
2023-03-21T11:39:43.949Z,20.17
2023-03-21T11:42:51.970Z,20.01
2023-03-21T11:45:58.725Z,19.49
2023-03-21T11:49:02.577Z,20.07
2023-03-21T11:52:13.716Z,19.98
2023-03-21T11:55:31.616Z,19.92
2023-03-21T11:58:38.645Z,19.93
2023-03-21T12:01:45.098Z,19.92
2023-03-21T12:04:52.771Z,19.90
2023-03-21T12:08:01.691Z,19.87
2023-03-21T12:11:09.365Z,19.90
2023-03-21T12:14:18.448Z,19.87
2023-03-21T12:17:28.686Z,19.82
2023-03-21T12:20:38.402Z,19.84
2023-03-21T12:23:47.929Z,19.82
2023-03-21T12:26:54.039Z,19.80
2023-03-21T12:30:05.184Z,19.81
2023-03-21T12:33:14.884Z,19.75
2023-03-21T12:36:23.231Z,19.75
2023-03-21T12:39:30.878Z,19.74
2023-03-21T12:42:45.368Z,19.75
2023-03-21T12:45:50.702Z,19.80
2023-03-21T12:48:55.225Z,19.78
2023-03-21T12:52:01.210Z,19.77
2023-03-21T12:55:08.938Z,19.76
2023-03-21T12:58:18.332Z,19.73
2023-03-21T13:01:23.042Z,19.73
2023-03-21T13:04:38.195Z,19.71
2023-03-21T13:07:43.196Z,19.71
2023-03-21T13:10:47.811Z,19.68
2023-03-21T13:13:53.510Z,19.68
2023-03-21T13:17:00.930Z,19.67
2023-03-21T13:20:09.716Z,19.64
2023-03-21T13:23:13.589Z,19.62
2023-03-21T13:26:17.955Z,19.58
2023-03-21T13:29:25.637Z,19.82
2023-03-21T13:32:30.863Z,19.78
2023-03-21T13:35:39.070Z,20.09
2023-03-21T13:38:43.383Z,19.98
2023-03-21T13:41:49.039Z,20.04
2023-03-21T13:44:54.291Z,20.11
2023-03-21T13:47:58.203Z,20.21
2023-03-21T13:51:02.518Z,20.31
2023-03-21T13:54:06.663Z,20.34
2023-03-21T13:57:22.035Z,20.45
2023-03-21T14:00:30.184Z,20.49
2023-03-21T14:03:35.582Z,20.47
2023-03-21T14:06:40.549Z,20.56
2023-03-21T14:09:45.799Z,20.55
2023-03-21T14:12:50.541Z,20.67
2023-03-21T14:15:56.715Z,20.76
2023-03-21T14:19:01.934Z,20.73
2023-03-21T14:22:05.222Z,20.73
2023-03-21T14:25:09.704Z,20.83
2023-03-21T14:28:18.380Z,20.91
2023-03-21T14:31:22.268Z,20.94
2023-03-21T14:34:26.180Z,20.91
2023-03-21T14:37:30.527Z,21.05
2023-03-21T14:40:33.416Z,20.98
2023-03-21T14:43:37.541Z,20.92
2023-03-21T14:46:41.948Z,20.90
2023-03-21T14:49:45.010Z,21.03
2023-03-21T14:52:47.924Z,20.91
2023-03-21T14:55:52.866Z,20.92
2023-03-21T14:58:57.442Z,20.92
2023-03-21T15:02:02.768Z,20.89
2023-03-21T15:05:11.019Z,20.82
2023-03-21T15:08:15.593Z,20.80
2023-03-21T15:11:18.517Z,20.79
2023-03-21T15:14:38.697Z,20.91
2023-03-21T15:17:41.484Z,20.85
2023-03-21T15:20:46.914Z,20.83
2023-03-21T15:23:52.047Z,20.80
2023-03-21T15:26:58.475Z,20.76
2023-03-21T15:30:02.616Z,20.73
2023-03-21T15:33:10.157Z,20.74
2023-03-21T15:36:13.254Z,20.75
2023-03-21T15:39:17.019Z,20.73
2023-03-21T15:42:28.312Z,20.74
2023-03-21T15:45:32.504Z,20.60
2023-03-21T15:48:35.532Z,20.60
2023-03-21T15:51:38.427Z,20.56
2023-03-21T15:54:44.006Z,20.56
2023-03-21T15:57:47.917Z,20.49
2023-03-21T16:00:55.266Z,20.50
2023-03-21T16:03:59.193Z,20.47
2023-03-21T16:07:03.783Z,20.44
2023-03-21T16:10:06.601Z,20.43
2023-03-21T16:13:12.275Z,20.43
2023-03-21T16:16:18.747Z,20.39
2023-03-21T16:19:22.093Z,20.40
2023-03-21T16:22:24.825Z,20.38
2023-03-21T16:25:27.751Z,20.38
2023-03-21T16:28:31.588Z,20.37
2023-03-21T16:31:36.870Z,20.36
2023-03-21T16:34:42.154Z,20.37
2023-03-21T16:37:45.162Z,20.39
2023-03-21T16:40:47.929Z,20.47
2023-03-21T16:43:50.729Z,20.55
2023-03-21T16:46:54.845Z,20.61
2023-03-21T16:49:57.622Z,20.65
2023-03-21T16:53:00.450Z,20.70
2023-03-21T16:56:05.295Z,20.75
2023-03-21T16:59:08.149Z,20.79
2023-03-21T17:02:15.220Z,20.82
2023-03-21T17:05:18.329Z,20.82
2023-03-21T17:08:21.948Z,20.84
2023-03-21T17:11:25.626Z,20.90
2023-03-21T17:14:28.424Z,20.89
2023-03-21T17:17:32.525Z,20.95
2023-03-21T17:20:37.868Z,20.98
2023-03-21T17:23:40.959Z,20.97
2023-03-21T17:26:43.713Z,21.02
2023-03-21T17:29:46.568Z,21.03
2023-03-21T17:32:50.942Z,21.05
2023-03-21T17:35:53.871Z,21.06
2023-03-21T17:38:57.944Z,21.09
2023-03-21T17:42:00.715Z,21.09
2023-03-21T17:45:03.510Z,21.11
2023-03-21T17:48:07.664Z,21.20
2023-03-21T17:51:12.842Z,21.11
2023-03-21T17:54:15.673Z,21.24
2023-03-21T17:57:18.473Z,21.24
2023-03-21T18:00:23.030Z,21.24
2023-03-21T18:03:27.244Z,21.21
2023-03-21T18:06:30.044Z,21.23
2023-03-21T18:09:33.225Z,21.22
2023-03-21T18:12:36.006Z,21.18
2023-03-21T18:15:44.045Z,21.11
2023-03-21T18:18:48.667Z,21.06
2023-03-21T18:21:51.441Z,21.02
2023-03-21T18:24:55.997Z,20.97
2023-03-21T18:28:10.433Z,20.90
2023-03-21T18:31:19.884Z,20.87
2023-03-21T18:34:24.302Z,20.79
2023-03-21T18:37:27.628Z,20.74
2023-03-21T18:40:30.811Z,20.71
2023-03-21T18:46:59.091Z,20.63
2023-03-21T18:50:14.166Z,20.58
2023-03-21T18:53:17.652Z,20.57
2023-03-21T18:57:13.217Z,20.54
2023-03-21T18:59:46.539Z,20.52
2023-03-21T19:03:04.230Z,20.54
2023-03-21T19:06:11.709Z,20.50
2023-03-21T19:09:15.006Z,20.50
2023-03-21T19:12:17.792Z,20.46
2023-03-21T19:15:21.792Z,20.46
2023-03-21T19:18:54.101Z,20.42
2023-03-21T19:21:51.227Z,20.38
2023-03-21T19:24:54.108Z,20.40
2023-03-21T19:27:57.085Z,20.43
2023-03-21T19:31:04.273Z,20.44
2023-03-21T19:34:07.636Z,20.43
2023-03-21T19:37:11.761Z,20.40
2023-03-21T19:40:15.026Z,20.41
2023-03-21T19:43:32.311Z,20.39
2023-03-21T19:46:36.988Z,20.36
2023-03-21T19:50:27.280Z,20.37
2023-03-21T19:53:04.907Z,20.35
2023-03-21T19:56:20.353Z,20.33
2023-03-21T19:59:24.990Z,20.31
2023-03-21T20:05:47.898Z,20.21
2023-03-21T20:12:16.293Z,20.14
2023-03-21T20:15:21.795Z,20.12
2023-03-21T20:18:25.756Z,20.10
2023-03-21T20:21:33.837Z,20.09
2023-03-21T20:24:44.466Z,20.14
2023-03-21T20:27:47.395Z,20.10
2023-03-21T20:30:51.582Z,20.12
2023-03-21T20:33:54.301Z,20.13
2023-03-21T20:36:58.148Z,20.12
2023-03-21T20:40:02.407Z,20.10
2023-03-21T20:43:40.092Z,20.08
2023-03-21T20:46:29.094Z,20.08
2023-03-21T20:49:32.376Z,20.06
2023-03-21T20:53:04.914Z,20.04
2023-03-21T20:56:02.368Z,20.02
2023-03-21T20:59:17.409Z,20.00
2023-03-21T21:02:26.600Z,19.98
2023-03-21T21:05:34.366Z,19.96
2023-03-21T21:08:38.241Z,19.94
2023-03-21T21:15:07.186Z,19.91
2023-03-21T21:18:10.031Z,19.98
2023-03-21T21:21:14.079Z,20.10
2023-03-21T21:24:16.839Z,20.13
2023-03-21T21:27:21.123Z,20.25
2023-03-21T21:30:24.021Z,20.33
2023-03-21T21:33:29.278Z,20.41
2023-03-21T21:36:32.091Z,20.50
2023-03-21T21:39:38.034Z,20.58
2023-03-21T21:42:43.393Z,20.58
2023-03-21T21:45:46.668Z,20.63
2023-03-21T21:48:49.616Z,20.68
2023-03-21T21:51:52.402Z,20.74
2023-03-21T21:54:55.110Z,20.75
2023-03-21T21:57:59.212Z,20.77
2023-03-21T22:01:02.312Z,20.80
2023-03-21T22:04:08.402Z,20.85
2023-03-21T22:07:14.492Z,20.84
2023-03-21T22:10:17.427Z,20.88
2023-03-21T22:13:21.647Z,20.90
2023-03-21T22:16:24.525Z,20.94
2023-03-21T22:19:27.753Z,20.91
2023-03-21T22:22:30.894Z,20.96
2023-03-21T22:25:34.238Z,20.96
2023-03-21T22:28:40.547Z,20.90
2023-03-21T22:31:45.410Z,20.98
2023-03-21T22:34:48.159Z,21.03
2023-03-21T22:37:51.279Z,21.03
2023-03-21T22:40:54.672Z,21.03
2023-03-21T22:43:58.822Z,21.14
2023-03-21T22:47:01.729Z,21.12
2023-03-21T22:50:04.737Z,21.12
2023-03-21T22:53:07.565Z,21.13
2023-03-21T22:56:11.151Z,21.15
2023-03-21T22:59:15.597Z,21.13
2023-03-21T23:02:18.354Z,21.18
2023-03-21T23:05:21.202Z,21.20
2023-03-21T23:08:23.953Z,21.22
2023-03-21T23:11:26.836Z,21.11
2023-03-21T23:14:31.078Z,20.66
2023-03-21T23:17:35.644Z,19.31
2023-03-21T23:20:38.639Z,18.33
2023-03-21T23:23:41.868Z,20.54
2023-03-21T23:26:44.639Z,20.88
2023-03-21T23:29:49.091Z,20.92
2023-03-21T23:32:51.909Z,20.93
2023-03-21T23:35:54.694Z,20.88
2023-03-21T23:38:57.585Z,20.85
2023-03-21T23:42:00.436Z,20.85
2023-03-21T23:45:04.767Z,20.77
2023-03-21T23:48:07.842Z,20.72
2023-03-21T23:51:10.729Z,20.65
2023-03-21T23:54:13.913Z,20.67
2023-03-21T23:57:17.289Z,20.64
